Map

Track Data

SID SEASON NUMBER BASIN SUBBASIN NAME ISO_TIME NATURE LAT LON WMO_WIND WMO_PRES WMO_AGENCY TRACK_TYPE DIST2LAND LANDFALL IFLAG USA_AGENCY USA_ATCF_ID USA_LAT USA_LON USA_RECORD USA_STATUS USA_WIND USA_PRES USA_SSHS USA_R34_NE USA_R34_SE USA_R34_SW USA_R34_NW USA_R50_NE USA_R50_SE USA_R50_SW USA_R50_NW USA_R64_NE USA_R64_SE USA_R64_SW USA_R64_NW USA_POCI USA_ROCI USA_RMW USA_EYE TOKYO_LAT TOKYO_LON TOKYO_GRADE TOKYO_WIND TOKYO_PRES TOKYO_R50_DIR TOKYO_R50_LONG TOKYO_R50_SHORT TOKYO_R30_DIR TOKYO_R30_LONG TOKYO_R30_SHORT TOKYO_LAND CMA_LAT CMA_LON CMA_CAT CMA_WIND CMA_PRES HKO_LAT HKO_LON HKO_CAT HKO_WIND HKO_PRES NEWDELHI_LAT NEWDELHI_LON NEWDELHI_GRADE NEWDELHI_WIND NEWDELHI_PRES NEWDELHI_CI NEWDELHI_DP NEWDELHI_POCI REUNION_LAT REUNION_LON REUNION_TYPE REUNION_WIND REUNION_PRES REUNION_TNUM REUNION_CI REUNION_RMW REUNION_R34_NE REUNION_R34_SE REUNION_R34_SW REUNION_R34_NW REUNION_R50_NE REUNION_R50_SE REUNION_R50_SW REUNION_R50_NW REUNION_R64_NE REUNION_R64_SE REUNION_R64_SW REUNION_R64_NW BOM_LAT BOM_LON BOM_TYPE BOM_WIND BOM_PRES BOM_TNUM BOM_CI BOM_RMW BOM_R34_NE BOM_R34_SE BOM_R34_SW BOM_R34_NW BOM_R50_NE BOM_R50_SE BOM_R50_SW BOM_R50_NW BOM_R64_NE BOM_R64_SE BOM_R64_SW BOM_R64_NW BOM_ROCI BOM_POCI BOM_EYE BOM_POS_METHOD BOM_PRES_METHOD NADI_LAT NADI_LON NADI_CAT NADI_WIND NADI_PRES WELLINGTON_LAT WELLINGTON_LON WELLINGTON_WIND WELLINGTON_PRES DS824_LAT DS824_LON DS824_STAGE DS824_WIND DS824_PRES TD9636_LAT TD9636_LON TD9636_STAGE TD9636_WIND TD9636_PRES TD9635_LAT TD9635_LON TD9635_WIND TD9635_PRES TD9635_ROCI NEUMANN_LAT NEUMANN_LON NEUMANN_CLASS NEUMANN_WIND NEUMANN_PRES MLC_LAT MLC_LON MLC_CLASS MLC_WIND MLC_PRES USA_GUST BOM_GUST BOM_GUST_PER REUNION_GUST REUNION_GUST_PER USA_SEAHGT USA_SEARAD_NE USA_SEARAD_SE USA_SEARAD_SW USA_SEARAD_NW STORM_SPEED STORM_DIR
1925041S20069 1925 11 SI MM NOT_NAMED 1925-02-10 00:00:00 TS -19.8000 68.6000 main 1129 1022 _________O____ -1 -19.8000 68.6000 TC 25 21 250
1925041S20069 1925 11 SI MM NOT_NAMED 1925-02-10 03:00:00 TS -20.1475 67.5576 main 1022 906 _________P____ -1 -20.1475 67.5576 TC 25 22 251
1925041S20069 1925 11 SI MM NOT_NAMED 1925-02-10 06:00:00 TS -20.5000 66.4000 main 896 772 _________O____ -1 -20.5000 66.4000 TC 25 24 253
1925041S20069 1925 11 SI MM NOT_NAMED 1925-02-10 09:00:00 TS -20.8464 65.1158 main 761 661 _________P____ -1 -20.8464 65.1158 TC 25 22 254
1925041S20069 1925 11 SI MM NOT_NAMED 1925-02-10 12:00:00 TS -21.1000 64.1000 main 661 631 _________O____ -1 -21.1000 64.1000 TC 25 13 255
1925041S20069 1925 11 SI MM NOT_NAMED 1925-02-10 15:00:00 TS -21.1861 63.7568 main 631 621 _________P____ -1 -21.1861 63.7568 TC 25 4 255
1925041S20069 1925 11 SI MM NOT_NAMED 1925-02-10 18:00:00 TS -21.2000 63.7000 main 621 601 _________O____ -1 -21.2000 63.7000 TC 25 2 259
1925041S20069 1925 11 SI MM NOT_NAMED 1925-02-10 21:00:00 TS -21.2273 63.5298 main 601 582 _________P____ -1 -21.2273 63.5298 TC 25 4 255
1925041S20069 1925 11 SI MM NOT_NAMED 1925-02-11 00:00:00 TS -21.3000 63.3000 main 582 554 _________O____ -1 -21.3000 63.3000 TC 25 6 247
1925041S20069 1925 11 SI MM NOT_NAMED 1925-02-11 03:00:00 TS -21.4626 62.9300 main 546 512 _________P____ -1 -21.4626 62.9300 TC 25 8 242
1925041S20069 1925 11 SI MM NOT_NAMED 1925-02-11 06:00:00 TS -21.7000 62.5000 main 512 480 _________O____ -1 -21.7000 62.5000 TC 25 9 237
1925041S20069 1925 11 SI MM NOT_NAMED 1925-02-11 09:00:00 TS -21.9624 62.0998 main 484 460 _________P____ -1 -21.9624 62.0998 TC 25 10 231
1925041S20069 1925 11 SI MM NOT_NAMED 1925-02-11 12:00:00 TS -22.3000 61.7000 main 460 443 _________O____ -1 -22.3000 61.7000 TC 25 11 225
1925041S20069 1925 11 SI MM NOT_NAMED 1925-02-11 15:00:00 TS -22.7125 61.2850 main 446 439 _________P____ -1 -22.7125 61.2850 TC 25 12 219
1925041S20069 1925 11 SI MM NOT_NAMED 1925-02-11 18:00:00 TS -23.2000 60.9000 main 447 447 _________O____ -1 -23.2000 60.9000 TC 25 13 212
1925041S20069 1925 11 SI MM NOT_NAMED 1925-02-11 21:00:00 TS -23.7800 60.5552 main 474 468 _________P____ -1 -23.7800 60.5552 TC 25 12 207
1925041S20069 1925 11 SI MM NOT_NAMED 1925-02-12 00:00:00 TS -24.3000 60.3000 main 501 501 _________O____ -1 -24.3000 60.3000 TC 25 9 204
1925041S20069 1925 11 SI MM NOT_NAMED 1925-02-12 03:00:00 TS -24.6024 60.1546 main 525 520 _________P____ -1 -24.6024 60.1546 TC 25 5 200
1925041S20069 1925 11 SI MM NOT_NAMED 1925-02-12 06:00:00 TS -24.8000 60.1000 main 540 540 _________O____ -1 -24.8000 60.1000 TC 25 4 192
1925041S20069 1925 11 SI MM NOT_NAMED 1925-02-12 09:00:00 TS -25.0149 60.0550 main 559 559 _________P____ -1 -25.0149 60.0550 TC 25 4 0
1925041S20069 1925 11 SI MM NOT_NAMED 1925-02-12 12:00:00 TS -25.2000 60.1000 main 580 580 _________O____ -1 -25.2000 60.1000 TC 25 4 150
1925041S20069 1925 11 SI MM NOT_NAMED 1925-02-12 15:00:00 TS -25.3576 60.2700 main 608 608 _________P____ -1 -25.3576 60.2700 TC 25 5 130
1925041S20069 1925 11 SI MM NOT_NAMED 1925-02-12 18:00:00 TS -25.5000 60.5000 main 627 627 _________O____ -1 -25.5000 60.5000 TC 25 5 127
1925041S20069 1925 11 SI MM NOT_NAMED 1925-02-12 21:00:00 TS -25.6500 60.7001 main 647 647 _________P____ -1 -25.6500 60.7001 TC 25 5 130
1925041S20069 1925 11 SI MM NOT_NAMED 1925-02-13 00:00:00 TS -25.8000 60.9000 main 676 676 _________O____ -1 -25.8000 60.9000 TC 25 5 130
1925041S20069 1925 11 SI MM NOT_NAMED 1925-02-13 03:00:00 TS -25.9500 61.1001 main 696 696 _________P____ -1 -25.9500 61.1001 TC 25 5 130
1925041S20069 1925 11 SI MM NOT_NAMED 1925-02-13 06:00:00 TS -26.1000 61.3000 main 725 725 _________O____ -1 -26.1000 61.3000 TC 25 5 131
1925041S20069 1925 11 SI MM NOT_NAMED 1925-02-13 09:00:00 TS -26.2499 61.4926 main 745 745 _________P____ -1 -26.2499 61.4926 TC 25 5 130
1925041S20069 1925 11 SI MM NOT_NAMED 1925-02-13 12:00:00 TS -26.4000 61.7000 main 775 775 _________O____ -1 -26.4000 61.7000 TC 25 5 127
1925041S20069 1925 11 SI MM NOT_NAMED 1925-02-13 15:00:00 TS -26.5575 61.9425 main 804 804 _________P____ -1 -26.5575 61.9425 TC 25 5 124
1925041S20069 1925 11 SI MM NOT_NAMED 1925-02-13 18:00:00 TS -26.7000 62.2000 main 830 830 _________O____ -1 -26.7000 62.2000 TC 25 5 119
1925041S20069 1925 11 SI MM NOT_NAMED 1925-02-13 21:00:00 TS -26.8101 62.4525 main 856 856 _________P____ -1 -26.8101 62.4525 TC 25 5 114
1925041S20069 1925 11 SI MM NOT_NAMED 1925-02-14 00:00:00 TS -26.9000 62.7000 main 877 _________O____ -1 -26.9000 62.7000 TC 25 5 112

About IBTrACS Database

This database is a web-friendly format of International Best Track Archive for Climate Stewardship (IBTrACS), a global best track data archive curated by NOAA dating back to 1842.

Updated: 2021-12-08